sensor_id;sensor_type;location;lat;lon;timestamp;pressure;altitude;pressure_sealevel;temperature;humidity
64139;BME280;50435;43.700;-79.318;2024-03-25T00:02:17;101494.36;;;2.32;41.09
64139;BME280;50435;43.700;-79.318;2024-03-25T00:04:44;101494.65;;;2.11;41.23
64139;BME280;50435;43.700;-79.318;2024-03-25T00:07:12;101493.44;;;2.25;41.10
64139;BME280;50435;43.700;-79.318;2024-03-25T00:09:39;101494.49;;;2.11;41.29
64139;BME280;50435;43.700;-79.318;2024-03-25T00:12:07;101480.55;;;0.95;41.39
64139;BME280;50435;43.700;-79.318;2024-03-25T00:14:35;101474.87;;;1.86;41.51
64139;BME280;50435;43.700;-79.318;2024-03-25T00:17:02;101482.27;;;1.36;41.41
64139;BME280;50435;43.700;-79.318;2024-03-25T00:19:29;101478.32;;;1.77;41.54
64139;BME280;50435;43.700;-79.318;2024-03-25T00:21:56;101484.74;;;2.37;41.28
64139;BME280;50435;43.700;-79.318;2024-03-25T00:24:24;101486.91;;;1.76;41.54
64139;BME280;50435;43.700;-79.318;2024-03-25T00:26:51;101489.73;;;2.22;41.50
64139;BME280;50435;43.700;-79.318;2024-03-25T00:29:19;101487.93;;;1.67;41.50
64139;BME280;50435;43.700;-79.318;2024-03-25T00:31:46;101492.32;;;1.62;41.57
64139;BME280;50435;43.700;-79.318;2024-03-25T00:34:14;101497.65;;;1.64;41.46
64139;BME280;50435;43.700;-79.318;2024-03-25T00:36:41;101495.23;;;1.74;41.55
64139;BME280;50435;43.700;-79.318;2024-03-25T00:39:08;101493.42;;;1.21;41.70
64139;BME280;50435;43.700;-79.318;2024-03-25T00:41:35;101499.00;;;1.91;41.80
64139;BME280;50435;43.700;-79.318;2024-03-25T00:44:03;101497.41;;;0.99;41.59
64139;BME280;50435;43.700;-79.318;2024-03-25T00:46:30;101498.20;;;1.62;41.75
64139;BME280;50435;43.700;-79.318;2024-03-25T00:48:58;101497.15;;;1.82;41.79
64139;BME280;50435;43.700;-79.318;2024-03-25T00:51:25;101502.88;;;1.16;41.94
64139;BME280;50435;43.700;-79.318;2024-03-25T00:53:52;101501.71;;;1.76;41.92
64139;BME280;50435;43.700;-79.318;2024-03-25T00:56:20;101497.20;;;1.44;42.01
64139;BME280;50435;43.700;-79.318;2024-03-25T00:58:47;101499.34;;;1.75;41.89
64139;BME280;50435;43.700;-79.318;2024-03-25T01:01:14;101497.76;;;1.37;41.90
64139;BME280;50435;43.700;-79.318;2024-03-25T01:03:41;101501.56;;;1.60;42.04
64139;BME280;50435;43.700;-79.318;2024-03-25T01:06:09;101506.54;;;1.19;41.91
64139;BME280;50435;43.700;-79.318;2024-03-25T01:08:37;101515.56;;;1.66;41.87
64139;BME280;50435;43.700;-79.318;2024-03-25T01:11:04;101522.48;;;0.63;41.78
64139;BME280;50435;43.700;-79.318;2024-03-25T01:13:32;101523.82;;;1.50;42.03
64139;BME280;50435;43.700;-79.318;2024-03-25T01:15:59;101527.31;;;1.53;42.00
64139;BME280;50435;43.700;-79.318;2024-03-25T01:18:27;101525.73;;;1.41;41.95
64139;BME280;50435;43.700;-79.318;2024-03-25T01:20:54;101523.19;;;1.43;41.95
64139;BME280;50435;43.700;-79.318;2024-03-25T01:23:21;101519.17;;;1.08;42.03
64139;BME280;50435;43.700;-79.318;2024-03-25T01:25:49;101519.93;;;1.32;41.94
64139;BME280;50435;43.700;-79.318;2024-03-25T01:28:16;101524.72;;;1.09;41.96
64139;BME280;50435;43.700;-79.318;2024-03-25T01:30:43;101529.87;;;1.27;42.11
64139;BME280;50435;43.700;-79.318;2024-03-25T01:33:11;101531.61;;;0.75;42.08
64139;BME280;50435;43.700;-79.318;2024-03-25T01:35:39;101524.67;;;1.18;42.16
64139;BME280;50435;43.700;-79.318;2024-03-25T01:38:06;101530.66;;;0.40;42.11
64139;BME280;50435;43.700;-79.318;2024-03-25T01:40:33;101525.11;;;1.12;42.00
64139;BME280;50435;43.700;-79.318;2024-03-25T01:43:02;101525.34;;;1.07;42.02
64139;BME280;50435;43.700;-79.318;2024-03-25T01:45:31;101525.51;;;1.04;42.06
64139;BME280;50435;43.700;-79.318;2024-03-25T01:48:02;101527.18;;;1.06;42.18
64139;BME280;50435;43.700;-79.318;2024-03-25T01:50:31;101532.84;;;1.03;42.12
64139;BME280;50435;43.700;-79.318;2024-03-25T01:53:00;101535.92;;;1.25;42.16
64139;BME280;50435;43.700;-79.318;2024-03-25T01:55:29;101539.23;;;1.16;42.12
64139;BME280;50435;43.700;-79.318;2024-03-25T01:57:57;101535.50;;;1.17;42.23
64139;BME280;50435;43.700;-79.318;2024-03-25T02:00:25;101534.17;;;0.87;42.36
64139;BME280;50435;43.700;-79.318;2024-03-25T02:02:54;101527.64;;;1.16;42.15
64139;BME280;50435;43.700;-79.318;2024-03-25T02:05:22;101532.40;;;0.83;42.40
64139;BME280;50435;43.700;-79.318;2024-03-25T02:07:50;101528.73;;;1.07;42.24
64139;BME280;50435;43.700;-79.318;2024-03-25T02:10:18;101529.14;;;0.68;42.63
64139;BME280;50435;43.700;-79.318;2024-03-25T02:12:46;101530.14;;;1.02;42.24
64139;BME280;50435;43.700;-79.318;2024-03-25T02:15:14;101523.41;;;0.79;42.22
64139;BME280;50435;43.700;-79.318;2024-03-25T02:17:42;101516.35;;;0.78;42.23
64139;BME280;50435;43.700;-79.318;2024-03-25T02:20:10;101512.26;;;0.75;42.09
64139;BME280;50435;43.700;-79.318;2024-03-25T02:22:38;101519.13;;;0.63;42.32
64139;BME280;50435;43.700;-79.318;2024-03-25T02:25:08;101516.27;;;0.61;42.44
64139;BME280;50435;43.700;-79.318;2024-03-25T02:27:37;101511.96;;;0.85;42.23
64139;BME280;50435;43.700;-79.318;2024-03-25T02:30:05;101508.24;;;-0.10;42.35
64139;BME280;50435;43.700;-79.318;2024-03-25T02:32:33;101509.65;;;0.59;42.49
64139;BME280;50435;43.700;-79.318;2024-03-25T02:35:02;101512.98;;;0.86;42.34
64139;BME280;50435;43.700;-79.318;2024-03-25T02:37:31;101517.59;;;0.45;42.62
64139;BME280;50435;43.700;-79.318;2024-03-25T02:40:01;101512.34;;;0.59;42.48
64139;BME280;50435;43.700;-79.318;2024-03-25T02:42:29;101512.30;;;0.77;42.46
64139;BME280;50435;43.700;-79.318;2024-03-25T02:44:57;101517.80;;;0.49;42.41
64139;BME280;50435;43.700;-79.318;2024-03-25T02:47:24;101514.09;;;0.46;42.55
64139;BME280;50435;43.700;-79.318;2024-03-25T02:49:52;101508.20;;;0.78;42.38
64139;BME280;50435;43.700;-79.318;2024-03-25T02:52:19;101507.14;;;0.70;42.45
64139;BME280;50435;43.700;-79.318;2024-03-25T02:54:46;101508.82;;;0.37;42.63
64139;BME280;50435;43.700;-79.318;2024-03-25T02:57:13;101512.25;;;0.48;42.50
64139;BME280;50435;43.700;-79.318;2024-03-25T02:59:40;101514.33;;;0.87;42.26
64139;BME280;50435;43.700;-79.318;2024-03-25T03:02:08;101517.59;;;-0.03;42.51
64139;BME280;50435;43.700;-79.318;2024-03-25T03:04:35;101513.34;;;0.66;42.38
64139;BME280;50435;43.700;-79.318;2024-03-25T03:07:02;101515.71;;;-0.06;42.45
64139;BME280;50435;43.700;-79.318;2024-03-25T03:09:29;101514.10;;;0.59;42.44
64139;BME280;50435;43.700;-79.318;2024-03-25T03:11:57;101507.74;;;0.59;42.42
64139;BME280;50435;43.700;-79.318;2024-03-25T03:14:24;101501.50;;;0.54;42.49
64139;BME280;50435;43.700;-79.318;2024-03-25T03:16:52;101506.08;;;0.52;42.72
64139;BME280;50435;43.700;-79.318;2024-03-25T03:19:19;101506.87;;;0.42;42.45
64139;BME280;50435;43.700;-79.318;2024-03-25T03:21:46;101508.57;;;0.21;42.65
64139;BME280;50435;43.700;-79.318;2024-03-25T03:24:13;101514.59;;;0.53;42.61
64139;BME280;50435;43.700;-79.318;2024-03-25T03:26:41;101517.03;;;0.65;42.71
64139;BME280;50435;43.700;-79.318;2024-03-25T03:29:08;101521.22;;;0.32;42.42
64139;BME280;50435;43.700;-79.318;2024-03-25T03:31:36;101531.66;;;0.58;42.41
64139;BME280;50435;43.700;-79.318;2024-03-25T03:34:04;101532.68;;;-0.57;42.34
64139;BME280;50435;43.700;-79.318;2024-03-25T03:36:31;101536.68;;;0.46;42.54
64139;BME280;50435;43.700;-79.318;2024-03-25T03:38:58;101532.73;;;0.45;42.35
64139;BME280;50435;43.700;-79.318;2024-03-25T03:41:25;101532.48;;;0.32;42.50
64139;BME280;50435;43.700;-79.318;2024-03-25T03:43:53;101526.54;;;0.60;42.46
64139;BME280;50435;43.700;-79.318;2024-03-25T03:46:20;101529.99;;;0.09;42.42
64139;BME280;50435;43.700;-79.318;2024-03-25T03:48:48;101527.45;;;0.66;42.36
64139;BME280;50435;43.700;-79.318;2024-03-25T03:51:15;101520.89;;;0.36;42.47
64139;BME280;50435;43.700;-79.318;2024-03-25T03:53:42;101512.48;;;0.63;42.39
64139;BME280;50435;43.700;-79.318;2024-03-25T03:56:10;101507.15;;;0.35;42.47
64139;BME280;50435;43.700;-79.318;2024-03-25T03:58:37;101505.58;;;0.46;42.30
64139;BME280;50435;43.700;-79.318;2024-03-25T04:01:04;101513.66;;;-0.07;42.25
64139;BME280;50435;43.700;-79.318;2024-03-25T04:03:40;101526.53;;;0.93;42.32
64139;BME280;50435;43.700;-79.318;2024-03-25T04:06:09;101520.28;;;0.50;42.30
64139;BME280;50435;43.700;-79.318;2024-03-25T04:08:37;101516.23;;;0.55;42.29
64139;BME280;50435;43.700;-79.318;2024-03-25T04:11:05;101511.01;;;-0.25;42.34
64139;BME280;50435;43.700;-79.318;2024-03-25T04:13:33;101510.12;;;0.56;42.52
64139;BME280;50435;43.700;-79.318;2024-03-25T04:16:02;101508.40;;;0.39;42.30
64139;BME280;50435;43.700;-79.318;2024-03-25T04:18:30;101506.05;;;0.76;42.48
64139;BME280;50435;43.700;-79.318;2024-03-25T04:20:59;101509.68;;;0.63;42.59
64139;BME280;50435;43.700;-79.318;2024-03-25T04:23:26;101508.34;;;0.35;42.71
64139;BME280;50435;43.700;-79.318;2024-03-25T04:25:54;101503.92;;;0.55;42.67
64139;BME280;50435;43.700;-79.318;2024-03-25T04:28:21;101505.17;;;0.51;42.87
64139;BME280;50435;43.700;-79.318;2024-03-25T04:30:53;101495.72;;;0.66;42.68
64139;BME280;50435;43.700;-79.318;2024-03-25T04:33:20;101490.63;;;0.27;42.88
64139;BME280;50435;43.700;-79.318;2024-03-25T04:35:48;101479.50;;;0.69;42.60
64139;BME280;50435;43.700;-79.318;2024-03-25T04:38:17;101474.98;;;0.63;42.64
64139;BME280;50435;43.700;-79.318;2024-03-25T04:40:45;101471.76;;;0.61;42.70
64139;BME280;50435;43.700;-79.318;2024-03-25T04:43:12;101467.00;;;0.46;42.57
64139;BME280;50435;43.700;-79.318;2024-03-25T04:45:40;101465.53;;;0.52;42.55
64139;BME280;50435;43.700;-79.318;2024-03-25T04:48:07;101456.29;;;-0.36;42.71
64139;BME280;50435;43.700;-79.318;2024-03-25T04:50:35;101452.78;;;0.43;42.73
64139;BME280;50435;43.700;-79.318;2024-03-25T04:53:02;101454.28;;;-0.01;42.60
64139;BME280;50435;43.700;-79.318;2024-03-25T04:55:29;101472.47;;;0.55;42.75
64139;BME280;50435;43.700;-79.318;2024-03-25T04:57:57;101478.22;;;0.36;42.79
64139;BME280;50435;43.700;-79.318;2024-03-25T05:00:24;101475.80;;;0.78;42.85
64139;BME280;50435;43.700;-79.318;2024-03-25T05:02:52;101476.30;;;0.27;43.01
64139;BME280;50435;43.700;-79.318;2024-03-25T05:05:19;101475.30;;;0.44;42.71
64139;BME280;50435;43.700;-79.318;2024-03-25T05:07:47;101470.13;;;0.46;42.74
64139;BME280;50435;43.700;-79.318;2024-03-25T05:10:14;101464.96;;;0.44;42.73
64139;BME280;50435;43.700;-79.318;2024-03-25T05:12:41;101460.23;;;0.83;42.52
64139;BME280;50435;43.700;-79.318;2024-03-25T05:15:09;101454.13;;;-0.33;42.77
64139;BME280;50435;43.700;-79.318;2024-03-25T05:17:36;101450.49;;;1.00;42.57
64139;BME280;50435;43.700;-79.318;2024-03-25T05:20:04;101445.16;;;-0.43;42.62
64139;BME280;50435;43.700;-79.318;2024-03-25T05:22:32;101437.51;;;0.76;42.59
64139;BME280;50435;43.700;-79.318;2024-03-25T05:24:59;101441.69;;;0.87;42.42
64139;BME280;50435;43.700;-79.318;2024-03-25T05:27:26;101427.01;;;0.50;42.50
64139;BME280;50435;43.700;-79.318;2024-03-25T05:29:54;101424.96;;;0.99;42.55
64139;BME280;50435;43.700;-79.318;2024-03-25T05:32:21;101425.65;;;0.56;42.38
64139;BME280;50435;43.700;-79.318;2024-03-25T05:34:49;101423.08;;;0.50;42.34
64139;BME280;50435;43.700;-79.318;2024-03-25T05:37:16;101434.25;;;0.44;42.47
64139;BME280;50435;43.700;-79.318;2024-03-25T05:39:44;101438.14;;;0.62;42.37
64139;BME280;50435;43.700;-79.318;2024-03-25T05:42:11;101438.58;;;0.30;42.41
64139;BME280;50435;43.700;-79.318;2024-03-25T05:44:38;101437.40;;;0.54;42.52
64139;BME280;50435;43.700;-79.318;2024-03-25T05:47:05;101437.09;;;0.03;42.46
64139;BME280;50435;43.700;-79.318;2024-03-25T05:49:33;101449.96;;;0.54;42.44
64139;BME280;50435;43.700;-79.318;2024-03-25T05:52:00;101457.44;;;0.75;42.74
64139;BME280;50435;43.700;-79.318;2024-03-25T05:54:27;101461.86;;;0.52;42.77
64139;BME280;50435;43.700;-79.318;2024-03-25T05:56:55;101460.64;;;0.71;42.59
64139;BME280;50435;43.700;-79.318;2024-03-25T05:59:22;101462.59;;;0.18;42.55
64139;BME280;50435;43.700;-79.318;2024-03-25T06:01:50;101464.26;;;0.88;42.63
64139;BME280;50435;43.700;-79.318;2024-03-25T06:04:17;101461.02;;;0.44;42.66
64139;BME280;50435;43.700;-79.318;2024-03-25T06:06:44;101457.09;;;0.68;42.59
64139;BME280;50435;43.700;-79.318;2024-03-25T06:09:12;101458.18;;;0.39;42.74
64139;BME280;50435;43.700;-79.318;2024-03-25T06:11:39;101447.12;;;0.47;42.46
64139;BME280;50435;43.700;-79.318;2024-03-25T06:14:07;101452.81;;;0.57;42.35
64139;BME280;50435;43.700;-79.318;2024-03-25T06:16:34;101465.85;;;0.80;42.34
64139;BME280;50435;43.700;-79.318;2024-03-25T06:19:01;101459.02;;;0.46;42.20
64139;BME280;50435;43.700;-79.318;2024-03-25T06:21:29;101458.72;;;0.65;42.19
64139;BME280;50435;43.700;-79.318;2024-03-25T06:23:56;101450.69;;;0.61;42.57
64139;BME280;50435;43.700;-79.318;2024-03-25T06:26:24;101450.80;;;0.40;42.53
64139;BME280;50435;43.700;-79.318;2024-03-25T06:28:51;101457.53;;;0.87;42.29
64139;BME280;50435;43.700;-79.318;2024-03-25T06:31:18;101453.05;;;0.45;42.59
64139;BME280;50435;43.700;-79.318;2024-03-25T06:33:46;101444.36;;;0.73;42.34
64139;BME280;50435;43.700;-79.318;2024-03-25T06:36:13;101432.72;;;0.27;43.00
64139;BME280;50435;43.700;-79.318;2024-03-25T06:38:40;101433.91;;;0.46;42.94
64139;BME280;50435;43.700;-79.318;2024-03-25T06:41:08;101438.56;;;0.43;42.77
64139;BME280;50435;43.700;-79.318;2024-03-25T06:43:36;101427.18;;;0.70;42.52
64139;BME280;50435;43.700;-79.318;2024-03-25T06:46:04;101410.13;;;-0.10;42.67
64139;BME280;50435;43.700;-79.318;2024-03-25T06:48:32;101408.66;;;0.67;42.60
64139;BME280;50435;43.700;-79.318;2024-03-25T06:51:00;101402.22;;;0.55;42.79
64139;BME280;50435;43.700;-79.318;2024-03-25T06:53:28;101398.74;;;0.24;42.93
64139;BME280;50435;43.700;-79.318;2024-03-25T06:55:57;101380.07;;;0.39;42.77
64139;BME280;50435;43.700;-79.318;2024-03-25T06:58:26;101377.93;;;0.55;42.85
64139;BME280;50435;43.700;-79.318;2024-03-25T07:00:56;101379.80;;;0.58;42.65
64139;BME280;50435;43.700;-79.318;2024-03-25T07:03:24;101371.86;;;0.24;42.79
64139;BME280;50435;43.700;-79.318;2024-03-25T07:05:52;101371.84;;;0.53;42.86
64139;BME280;50435;43.700;-79.318;2024-03-25T07:08:19;101365.00;;;0.52;42.47
64139;BME280;50435;43.700;-79.318;2024-03-25T07:10:47;101353.25;;;1.13;42.27
64139;BME280;50435;43.700;-79.318;2024-03-25T07:13:14;101342.43;;;0.64;42.20
64139;BME280;50435;43.700;-79.318;2024-03-25T07:15:43;101344.00;;;1.06;42.30
64139;BME280;50435;43.700;-79.318;2024-03-25T07:18:11;101340.70;;;0.53;41.98
64139;BME280;50435;43.700;-79.318;2024-03-25T07:20:38;101336.60;;;0.68;42.19
64139;BME280;50435;43.700;-79.318;2024-03-25T07:23:05;101329.97;;;-0.07;42.27
64139;BME280;50435;43.700;-79.318;2024-03-25T07:25:33;101335.67;;;1.14;42.30
64139;BME280;50435;43.700;-79.318;2024-03-25T07:28:00;101326.21;;;0.78;42.19
64139;BME280;50435;43.700;-79.318;2024-03-25T07:30:28;101324.36;;;0.82;42.05
64139;BME280;50435;43.700;-79.318;2024-03-25T07:32:55;101326.62;;;1.15;42.23
64139;BME280;50435;43.700;-79.318;2024-03-25T07:35:23;101333.15;;;1.04;42.12
64139;BME280;50435;43.700;-79.318;2024-03-25T07:37:52;101336.44;;;0.74;42.52
64139;BME280;50435;43.700;-79.318;2024-03-25T07:40:20;101329.92;;;0.67;42.32
64139;BME280;50435;43.700;-79.318;2024-03-25T07:42:48;101330.86;;;0.59;42.46
64139;BME280;50435;43.700;-79.318;2024-03-25T07:45:17;101320.35;;;0.47;42.64
64139;BME280;50435;43.700;-79.318;2024-03-25T07:47:45;101324.02;;;0.82;42.51
64139;BME280;50435;43.700;-79.318;2024-03-25T07:50:12;101326.59;;;0.64;42.45
64139;BME280;50435;43.700;-79.318;2024-03-25T07:52:39;101323.26;;;0.84;42.49
64139;BME280;50435;43.700;-79.318;2024-03-25T07:55:08;101316.05;;;0.08;42.51
64139;BME280;50435;43.700;-79.318;2024-03-25T07:57:35;101312.76;;;0.44;42.76
64139;BME280;50435;43.700;-79.318;2024-03-25T08:00:03;101308.18;;;-0.15;42.50
64139;BME280;50435;43.700;-79.318;2024-03-25T08:02:31;101296.97;;;0.46;42.80
64139;BME280;50435;43.700;-79.318;2024-03-25T08:04:58;101293.44;;;0.75;42.70
64139;BME280;50435;43.700;-79.318;2024-03-25T08:07:25;101287.04;;;0.72;42.88
64139;BME280;50435;43.700;-79.318;2024-03-25T08:09:53;101286.57;;;1.05;42.70
64139;BME280;50435;43.700;-79.318;2024-03-25T08:12:20;101276.18;;;0.46;42.81
64139;BME280;50435;43.700;-79.318;2024-03-25T08:14:48;101268.93;;;0.40;43.00
64139;BME280;50435;43.700;-79.318;2024-03-25T08:17:15;101256.81;;;0.53;42.82
64139;BME280;50435;43.700;-79.318;2024-03-25T08:19:42;101250.83;;;0.73;42.78
64139;BME280;50435;43.700;-79.318;2024-03-25T08:22:10;101246.72;;;0.16;42.94
64139;BME280;50435;43.700;-79.318;2024-03-25T08:24:37;101241.97;;;0.67;42.93
64139;BME280;50435;43.700;-79.318;2024-03-25T08:27:05;101243.16;;;-0.41;42.81
64139;BME280;50435;43.700;-79.318;2024-03-25T08:29:32;101247.26;;;0.55;42.71
64139;BME280;50435;43.700;-79.318;2024-03-25T08:31:59;101243.62;;;0.84;42.70
64139;BME280;50435;43.700;-79.318;2024-03-25T08:34:27;101244.94;;;0.56;42.78
64139;BME280;50435;43.700;-79.318;2024-03-25T08:36:54;101236.62;;;0.60;42.72
64139;BME280;50435;43.700;-79.318;2024-03-25T08:39:22;101225.41;;;0.82;42.81
64139;BME280;50435;43.700;-79.318;2024-03-25T08:41:49;101226.97;;;0.61;42.71
64139;BME280;50435;43.700;-79.318;2024-03-25T08:44:16;101230.99;;;0.54;42.78
64139;BME280;50435;43.700;-79.318;2024-03-25T08:46:44;101232.73;;;0.73;42.91
64139;BME280;50435;43.700;-79.318;2024-03-25T08:49:11;101247.77;;;0.12;42.71
64139;BME280;50435;43.700;-79.318;2024-03-25T08:51:39;101239.25;;;0.72;42.86
64139;BME280;50435;43.700;-79.318;2024-03-25T08:54:06;101235.75;;;-0.48;42.87
64139;BME280;50435;43.700;-79.318;2024-03-25T08:56:33;101238.64;;;0.66;42.99
64139;BME280;50435;43.700;-79.318;2024-03-25T08:59:01;101238.16;;;0.42;43.06
64139;BME280;50435;43.700;-79.318;2024-03-25T09:01:28;101235.04;;;0.52;42.91
64139;BME280;50435;43.700;-79.318;2024-03-25T09:03:56;101233.78;;;0.57;42.85
64139;BME280;50435;43.700;-79.318;2024-03-25T09:06:23;101236.35;;;0.60;42.81
64139;BME280;50435;43.700;-79.318;2024-03-25T09:08:51;101242.84;;;0.55;42.89
64139;BME280;50435;43.700;-79.318;2024-03-25T09:11:18;101241.29;;;0.41;43.06
64139;BME280;50435;43.700;-79.318;2024-03-25T09:13:45;101242.27;;;0.96;42.60
64139;BME280;50435;43.700;-79.318;2024-03-25T09:16:13;101246.25;;;0.63;42.79
64139;BME280;50435;43.700;-79.318;2024-03-25T09:18:40;101241.38;;;0.78;42.93
64139;BME280;50435;43.700;-79.318;2024-03-25T09:21:08;101237.42;;;0.62;42.95
64139;BME280;50435;43.700;-79.318;2024-03-25T09:23:35;101242.78;;;0.80;42.94
64139;BME280;50435;43.700;-79.318;2024-03-25T09:26:03;101245.99;;;-0.26;43.05
64139;BME280;50435;43.700;-79.318;2024-03-25T09:28:30;101242.11;;;0.83;42.89
64139;BME280;50435;43.700;-79.318;2024-03-25T09:30:57;101244.38;;;0.82;42.89
64139;BME280;50435;43.700;-79.318;2024-03-25T09:33:25;101242.83;;;0.46;43.05
64139;BME280;50435;43.700;-79.318;2024-03-25T09:35:52;101235.82;;;0.58;42.94
64139;BME280;50435;43.700;-79.318;2024-03-25T09:38:19;101226.50;;;0.69;43.05
64139;BME280;50435;43.700;-79.318;2024-03-25T09:40:47;101220.48;;;0.99;42.96
64139;BME280;50435;43.700;-79.318;2024-03-25T09:43:23;101216.60;;;0.56;43.03
64139;BME280;50435;43.700;-79.318;2024-03-25T09:45:51;101211.30;;;0.72;43.03
64139;BME280;50435;43.700;-79.318;2024-03-25T09:48:21;101209.54;;;0.56;43.00
64139;BME280;50435;43.700;-79.318;2024-03-25T09:50:50;101204.39;;;0.84;43.17
64139;BME280;50435;43.700;-79.318;2024-03-25T09:53:19;101191.62;;;0.53;43.06
64139;BME280;50435;43.700;-79.318;2024-03-25T09:55:47;101185.50;;;0.91;43.18
64139;BME280;50435;43.700;-79.318;2024-03-25T09:58:16;101182.42;;;0.49;43.17
64139;BME280;50435;43.700;-79.318;2024-03-25T10:00:45;101174.74;;;0.89;43.25
64139;BME280;50435;43.700;-79.318;2024-03-25T10:03:13;101169.78;;;0.45;43.31
64139;BME280;50435;43.700;-79.318;2024-03-25T10:05:40;101165.16;;;0.75;43.14
64139;BME280;50435;43.700;-79.318;2024-03-25T10:08:07;101163.39;;;0.35;43.10
64139;BME280;50435;43.700;-79.318;2024-03-25T10:10:35;101160.26;;;0.42;43.33
64139;BME280;50435;43.700;-79.318;2024-03-25T10:13:02;101156.74;;;0.17;42.99
64139;BME280;50435;43.700;-79.318;2024-03-25T10:15:30;101155.72;;;0.46;43.31
64139;BME280;50435;43.700;-79.318;2024-03-25T10:17:57;101164.39;;;0.69;43.24
64139;BME280;50435;43.700;-79.318;2024-03-25T10:20:25;101172.15;;;0.46;43.38
64139;BME280;50435;43.700;-79.318;2024-03-25T10:22:52;101176.32;;;0.52;43.22
64139;BME280;50435;43.700;-79.318;2024-03-25T10:25:21;101179.04;;;0.36;43.48
64139;BME280;50435;43.700;-79.318;2024-03-25T10:27:57;101180.52;;;0.63;43.37
64139;BME280;50435;43.700;-79.318;2024-03-25T10:30:25;101175.86;;;0.70;43.28
64139;BME280;50435;43.700;-79.318;2024-03-25T10:33:01;101173.90;;;0.72;43.24
64139;BME280;50435;43.700;-79.318;2024-03-25T10:35:29;101181.25;;;0.78;43.20
64139;BME280;50435;43.700;-79.318;2024-03-25T10:37:59;101172.53;;;0.44;43.34
64139;BME280;50435;43.700;-79.318;2024-03-25T10:40:28;101167.22;;;0.73;43.38
64139;BME280;50435;43.700;-79.318;2024-03-25T10:43:01;101164.45;;;0.90;43.39
64139;BME280;50435;43.700;-79.318;2024-03-25T10:45:30;101160.72;;;0.56;43.37
64139;BME280;50435;43.700;-79.318;2024-03-25T10:48:00;101163.14;;;1.03;43.25
64139;BME280;50435;43.700;-79.318;2024-03-25T10:50:30;101167.04;;;1.19;43.11
64139;BME280;50435;43.700;-79.318;2024-03-25T10:52:59;101178.49;;;0.82;43.22
64139;BME280;50435;43.700;-79.318;2024-03-25T10:55:30;101176.07;;;0.67;43.20
64139;BME280;50435;43.700;-79.318;2024-03-25T10:57:58;101173.52;;;0.83;43.27
64139;BME280;50435;43.700;-79.318;2024-03-25T11:00:27;101171.28;;;0.56;43.34
64139;BME280;50435;43.700;-79.318;2024-03-25T11:02:55;101169.83;;;0.46;43.51
64139;BME280;50435;43.700;-79.318;2024-03-25T11:05:23;101161.99;;;0.42;43.64
64139;BME280;50435;43.700;-79.318;2024-03-25T11:07:50;101166.11;;;0.79;43.41
64139;BME280;50435;43.700;-79.318;2024-03-25T11:10:17;101170.14;;;0.71;43.57
64139;BME280;50435;43.700;-79.318;2024-03-25T11:12:45;101173.38;;;0.69;43.64
64139;BME280;50435;43.700;-79.318;2024-03-25T11:15:16;101173.32;;;0.58;43.44
64139;BME280;50435;43.700;-79.318;2024-03-25T11:17:49;101166.87;;;0.80;43.74
64139;BME280;50435;43.700;-79.318;2024-03-25T11:20:16;101162.37;;;0.41;43.71
64139;BME280;50435;43.700;-79.318;2024-03-25T11:22:52;101161.04;;;0.70;43.66
64139;BME280;50435;43.700;-79.318;2024-03-25T11:25:21;101157.19;;;0.21;44.07
64139;BME280;50435;43.700;-79.318;2024-03-25T11:27:48;101160.03;;;0.68;43.74
64139;BME280;50435;43.700;-79.318;2024-03-25T11:30:16;101172.22;;;0.42;43.82
64139;BME280;50435;43.700;-79.318;2024-03-25T11:32:46;101172.39;;;0.74;43.61
64139;BME280;50435;43.700;-79.318;2024-03-25T11:35:13;101170.71;;;0.54;43.65
64139;BME280;50435;43.700;-79.318;2024-03-25T11:37:41;101164.56;;;0.54;43.72
64139;BME280;50435;43.700;-79.318;2024-03-25T11:40:10;101161.74;;;0.57;43.70
64139;BME280;50435;43.700;-79.318;2024-03-25T11:42:39;101154.12;;;0.65;44.00
64139;BME280;50435;43.700;-79.318;2024-03-25T11:45:07;101146.32;;;0.01;43.92
64139;BME280;50435;43.700;-79.318;2024-03-25T11:47:34;101147.93;;;0.95;43.84
64139;BME280;50435;43.700;-79.318;2024-03-25T11:50:08;101147.95;;;0.56;43.90
64139;BME280;50435;43.700;-79.318;2024-03-25T11:52:36;101150.76;;;0.75;43.53
64139;BME280;50435;43.700;-79.318;2024-03-25T11:55:04;101162.02;;;0.08;43.36
64139;BME280;50435;43.700;-79.318;2024-03-25T11:57:32;101165.34;;;0.91;43.55
64139;BME280;50435;43.700;-79.318;2024-03-25T11:59:59;101168.37;;;1.29;43.51
64139;BME280;50435;43.700;-79.318;2024-03-25T12:02:27;101172.58;;;0.67;43.34
64139;BME280;50435;43.700;-79.318;2024-03-25T12:04:54;101175.91;;;1.18;43.49
64139;BME280;50435;43.700;-79.318;2024-03-25T12:07:21;101178.79;;;1.01;43.43
64139;BME280;50435;43.700;-79.318;2024-03-25T12:09:49;101169.40;;;1.25;43.81
64139;BME280;50435;43.700;-79.318;2024-03-25T12:12:16;101169.39;;;0.67;45.36
64139;BME280;50435;43.700;-79.318;2024-03-25T12:14:43;101172.38;;;0.72;45.58
64139;BME280;50435;43.700;-79.318;2024-03-25T12:17:11;101165.16;;;0.71;44.73
64139;BME280;50435;43.700;-79.318;2024-03-25T12:19:38;101155.63;;;1.13;43.85
64139;BME280;50435;43.700;-79.318;2024-03-25T12:22:06;101162.55;;;0.53;43.64
64139;BME280;50435;43.700;-79.318;2024-03-25T12:24:34;101169.64;;;1.06;43.47
64139;BME280;50435;43.700;-79.318;2024-03-25T12:27:01;101171.03;;;1.08;43.55
64139;BME280;50435;43.700;-79.318;2024-03-25T12:29:29;101166.83;;;1.16;43.25
64139;BME280;50435;43.700;-79.318;2024-03-25T12:31:56;101177.52;;;1.53;43.00
64139;BME280;50435;43.700;-79.318;2024-03-25T12:34:25;101186.21;;;1.10;42.95
64139;BME280;50435;43.700;-79.318;2024-03-25T12:37:00;101182.39;;;1.50;42.70
64139;BME280;50435;43.700;-79.318;2024-03-25T12:39:28;101179.58;;;1.40;42.46
64139;BME280;50435;43.700;-79.318;2024-03-25T12:41:56;101181.28;;;1.69;42.44
64139;BME280;50435;43.700;-79.318;2024-03-25T12:44:23;101175.72;;;1.84;42.14